Time;durP1;ratioP1;P1;durP2;ratioP2;P2;SDS_P1;SDS_P2;PMS_P1;PMS_P2;Temp;Humidity;BMP_temperature;BMP_pressure;BME280_temperature;BME280_humidity;BME280_pressure;Samples;Min_cycle;Max_cycle;Signal;HPM_P1;HPM_P2
2021/10/15 00:01:03;;;;;;;16.10;7.00;;;;;;;12.72;89.49;101801.84;4945050;28;20039;-87
2021/10/15 00:03:29;;;;;;;14.90;6.97;;;;;;;12.72;89.60;101796.59;4976412;28;20063;-87
2021/10/15 00:05:54;;;;;;;20.88;7.20;;;;;;;12.73;89.77;101792.19;4961025;28;20126;-86
2021/10/15 00:08:20;;;;;;;12.48;7.07;;;;;;;12.73;89.61;101782.53;4976686;28;20035;-86
2021/10/15 00:10:45;;;;;;;11.77;6.72;;;;;;;12.73;89.47;101779.88;4961242;28;20047;-87
2021/10/15 00:13:11;;;;;;;8.93;6.55;;;;;;;12.73;89.62;101779.03;4960784;28;20093;-87
2021/10/15 00:15:36;;;;;;;15.40;6.82;;;;;;;12.73;89.52;101771.16;4960659;28;20042;-87
2021/10/15 00:18:01;;;;;;;18.17;6.25;;;;;;;12.73;89.71;101769.38;4976903;28;20044;-87
2021/10/15 00:20:27;;;;;;;12.55;6.88;;;;;;;12.73;89.63;101771.16;4960269;28;20298;-87
2021/10/15 00:22:52;;;;;;;17.15;6.50;;;;;;;12.73;89.52;101771.16;4976627;28;20046;-87
2021/10/15 00:25:18;;;;;;;13.98;6.72;;;;;;;12.73;89.57;101771.16;4976966;28;20484;-87
2021/10/15 00:27:43;;;;;;;10.88;6.50;;;;;;;12.72;89.66;101772.94;4976735;28;20339;-87
2021/10/15 00:30:09;;;;;;;14.52;6.88;;;;;;;12.73;89.87;101772.00;4960455;28;20039;-87
2021/10/15 00:32:34;;;;;;;10.88;6.18;;;;;;;12.74;89.67;101760.59;4959968;28;20039;-87
2021/10/15 00:35:00;;;;;;;13.30;6.88;;;;;;;12.73;89.70;101755.38;4975973;28;20050;-86
2021/10/15 00:37:25;;;;;;;14.25;7.18;;;;;;;12.73;89.77;101748.34;4976129;28;20065;-87
2021/10/15 00:39:50;;;;;;;11.25;6.40;;;;;;;12.72;89.69;101744.03;4960272;28;20034;-86
2021/10/15 00:42:16;;;;;;;12.45;7.20;;;;;;;12.71;89.74;101739.66;4960150;28;20033;-87
2021/10/15 00:44:42;;;;;;;13.02;6.65;;;;;;;12.72;89.87;101732.66;4959836;28;20034;-87
2021/10/15 00:47:07;;;;;;;14.63;6.88;;;;;;;12.72;90.02;101727.41;4960414;28;20066;-87
2021/10/15 00:49:32;;;;;;;11.30;6.43;;;;;;;12.72;90.25;101736.13;4960155;28;20034;-87
2021/10/15 00:51:59;;;;;;;9.18;6.60;;;;;;;12.72;89.89;101733.50;4960097;28;20042;-87
2021/10/15 00:54:24;;;;;;;12.35;6.32;;;;;;;12.72;89.95;101727.41;4975691;28;20353;-87
2021/10/15 00:56:50;;;;;;;17.90;6.78;;;;;;;12.72;90.17;101733.50;4966212;28;20381;-87
2021/10/15 00:59:15;;;;;;;10.77;6.75;;;;;;;12.72;90.15;101727.41;4921448;29;20258;-86
2021/10/15 01:01:41;;;;;;;13.77;7.10;;;;;;;12.71;90.03;101721.28;4937259;29;20091;-87
2021/10/15 01:04:06;;;;;;;13.95;7.63;;;;;;;12.72;90.02;101712.50;4921429;29;20074;-87
2021/10/15 01:06:32;;;;;;;13.40;6.45;;;;;;;12.72;90.29;101709.00;4921581;29;20039;-87
2021/10/15 01:08:58;;;;;;;14.02;7.28;;;;;;;12.72;90.02;101715.13;4921546;29;20051;-87
2021/10/15 01:11:23;;;;;;;16.67;7.72;;;;;;;12.73;90.13;101695.78;4921204;29;20031;-87
2021/10/15 01:13:48;;;;;;;15.48;6.60;;;;;;;12.74;90.10;101704.56;4921861;29;20114;-87
2021/10/15 01:16:14;;;;;;;14.85;6.88;;;;;;;12.74;90.13;101702.78;4921624;29;20041;-87
2021/10/15 01:18:40;;;;;;;11.30;7.10;;;;;;;12.74;90.08;101704.56;4921113;29;20369;-87
2021/10/15 01:21:05;;;;;;;16.15;7.15;;;;;;;12.75;90.24;101698.38;4921983;29;20062;-87
2021/10/15 01:23:31;;;;;;;9.55;6.70;;;;;;;12.74;90.31;101694.88;4921109;29;20342;-87
2021/10/15 01:25:56;;;;;;;14.98;7.13;;;;;;;12.75;90.33;101698.38;4937306;29;20043;-87
2021/10/15 01:28:22;;;;;;;10.57;6.43;;;;;;;12.75;90.17;101701.00;4921135;29;20099;-87
2021/10/15 01:30:48;;;;;;;16.15;7.00;;;;;;;12.74;90.35;101684.38;4921909;29;20038;-87
2021/10/15 01:33:13;;;;;;;12.07;7.20;;;;;;;12.75;90.18;101690.47;4921564;29;20035;-87
2021/10/15 01:35:39;;;;;;;17.15;7.50;;;;;;;12.74;90.36;101689.63;4921353;29;20296;-87
2021/10/15 01:38:05;;;;;;;13.77;7.45;;;;;;;12.75;90.16;101683.47;4921600;29;20039;-87
2021/10/15 01:40:30;;;;;;;13.80;7.45;;;;;;;12.74;90.45;101679.13;4952702;29;20235;-87
2021/10/15 01:42:56;;;;;;;18.77;7.45;;;;;;;12.75;90.34;101677.34;4921464;29;20032;-87
2021/10/15 01:45:26;;;;;;;15.07;8.15;;;;;;;12.76;90.18;101679.06;4936719;29;20031;-87
2021/10/15 01:47:51;;;;;;;9.68;7.18;;;;;;;12.76;90.21;101676.44;4923768;29;20075;-87
2021/10/15 01:50:17;;;;;;;14.63;7.72;;;;;;;12.75;90.47;101666.81;4925082;29;20225;-87
2021/10/15 01:52:43;;;;;;;18.88;8.02;;;;;;;12.74;90.37;101665.13;4924991;29;20046;-87
2021/10/15 01:55:08;;;;;;;20.63;7.78;;;;;;;12.75;90.31;101664.19;4925373;29;20487;-87
2021/10/15 01:57:34;;;;;;;16.48;7.82;;;;;;;12.75;90.55;101658.94;4982012;28;20222;-87
2021/10/15 02:00:00;;;;;;;16.33;7.47;;;;;;;12.74;90.59;101665.13;4963317;28;20042;-87
2021/10/15 02:02:25;;;;;;;11.73;7.57;;;;;;;12.75;90.97;101662.44;4962786;28;20043;-87
2021/10/15 02:04:52;;;;;;;13.30;7.63;;;;;;;12.75;90.65;101664.19;4963286;28;20215;-87
2021/10/15 02:07:18;;;;;;;12.13;7.78;;;;;;;12.75;90.73;101658.94;4947440;28;20342;-87
2021/10/15 02:09:43;;;;;;;18.15;8.07;;;;;;;12.75;90.50;101658.94;4963336;28;20102;-87
2021/10/15 02:12:08;;;;;;;12.85;7.10;;;;;;;12.75;90.79;101658.94;4946923;28;20043;-87
2021/10/15 02:14:34;;;;;;;14.02;7.30;;;;;;;12.73;90.87;101645.00;4962542;28;20030;-87
2021/10/15 02:16:59;;;;;;;14.02;7.65;;;;;;;12.73;90.96;101637.97;4962786;28;20337;-87
2021/10/15 02:19:25;;;;;;;12.93;7.03;;;;;;;12.72;90.87;101643.31;4978871;28;20042;-87
2021/10/15 02:21:50;;;;;;;14.15;7.25;;;;;;;12.73;90.94;101640.59;4962816;28;20034;-87
2021/10/15 02:24:16;;;;;;;19.17;7.22;;;;;;;12.73;90.88;101639.75;4962705;28;20135;-87
2021/10/15 02:26:41;;;;;;;11.88;6.78;;;;;;;12.73;90.85;101634.50;4962741;28;20085;-87
2021/10/15 02:29:07;;;;;;;21.98;7.15;;;;;;;12.74;90.85;101625.69;4962891;28;20038;-87
2021/10/15 02:31:32;;;;;;;10.00;6.85;;;;;;;12.75;90.73;101627.41;4962339;28;20045;-87
2021/10/15 02:33:58;;;;;;;15.25;7.25;;;;;;;12.74;90.88;101620.44;4978643;28;20302;-87
2021/10/15 02:36:23;;;;;;;17.40;7.15;;;;;;;12.74;91.06;101621.28;4978340;28;20044;-87
2021/10/15 02:38:49;;;;;;;18.80;7.32;;;;;;;12.73;90.94;101619.56;4962621;28;20195;-87
2021/10/15 02:41:14;;;;;;;16.85;7.65;;;;;;;12.74;90.91;101625.69;4978653;28;20311;-87
2021/10/15 02:43:39;;;;;;;18.00;7.60;;;;;;;12.75;90.78;101632.66;4961977;28;20298;-87
2021/10/15 02:46:05;;;;;;;14.48;7.53;;;;;;;12.73;91.14;101614.31;4978801;28;20278;-87
2021/10/15 02:48:30;;;;;;;13.43;7.22;;;;;;;12.74;91.26;101609.94;4945887;28;20101;-87
2021/10/15 02:50:56;;;;;;;13.60;7.40;;;;;;;12.73;91.04;101609.06;4978606;28;20355;-87
2021/10/15 02:53:21;;;;;;;14.00;7.78;;;;;;;12.74;91.19;101612.56;4978192;28;20050;-87
2021/10/15 02:55:48;;;;;;;16.52;7.47;;;;;;;12.74;91.22;101609.94;4946545;28;20034;-87
2021/10/15 02:58:13;;;;;;;20.92;7.70;;;;;;;12.73;91.10;101619.56;4945021;29;20077;-88
2021/10/15 03:00:39;;;;;;;14.32;7.32;;;;;;;12.73;91.09;101619.56;4927337;29;20046;-88
2021/10/15 03:03:04;;;;;;;11.82;6.75;;;;;;;12.72;91.19;101614.41;4942806;29;20027;-88
2021/10/15 03:05:30;;;;;;;14.18;7.10;;;;;;;12.72;91.24;101603.88;4958604;29;20039;-88
2021/10/15 03:07:55;;;;;;;11.45;6.85;;;;;;;12.73;91.13;101601.16;4943003;28;20089;-88
2021/10/15 03:10:20;;;;;;;12.80;7.38;;;;;;;12.72;91.02;101594.22;4942555;29;20031;-89
2021/10/15 03:12:46;;;;;;;9.70;7.00;;;;;;;12.70;90.71;101593.41;4942907;29;20039;-88
2021/10/15 03:15:11;;;;;;;16.73;6.95;;;;;;;12.70;90.81;101597.78;4942952;29;20353;-88
2021/10/15 03:17:37;;;;;;;17.25;7.38;;;;;;;12.70;90.99;101592.53;4942583;29;20242;-88
2021/10/15 03:20:03;;;;;;;9.60;7.05;;;;;;;12.70;91.18;101593.41;4943019;29;20035;-88
2021/10/15 03:22:28;;;;;;;14.23;6.82;;;;;;;12.70;90.87;101592.53;4942457;29;20035;-88
2021/10/15 03:24:54;;;;;;;10.13;7.25;;;;;;;12.69;90.81;101591.69;4958890;29;20054;-88
2021/10/15 03:27:19;;;;;;;16.13;5.88;;;;;;;12.71;90.81;101595.13;4958113;29;20042;-88
2021/10/15 03:29:45;;;;;;;14.25;5.88;;;;;;;12.71;90.81;101586.38;4958772;29;20043;-88
2021/10/15 03:32:10;;;;;;;11.32;4.40;;;;;;;12.70;90.39;101590.78;4942710;29;20205;-88
2021/10/15 03:34:36;;;;;;;12.07;4.60;;;;;;;12.71;89.77;101576.72;4942171;29;20041;-88
2021/10/15 03:37:01;;;;;;;14.90;4.75;;;;;;;12.72;89.74;101575.81;4958558;29;20404;-88
2021/10/15 03:39:26;;;;;;;9.60;4.45;;;;;;;12.75;89.39;101585.34;4941895;29;20058;-88
2021/10/15 03:41:52;;;;;;;6.60;3.58;;;;;;;12.77;89.50;101586.13;4942312;29;20031;-88
2021/10/15 03:44:17;;;;;;;10.38;3.58;;;;;;;12.77;89.03;101576.50;4942043;29;20039;-88
2021/10/15 03:46:43;;;;;;;10.05;3.45;;;;;;;12.80;88.81;101583.41;4942511;29;20031;-88
2021/10/15 03:49:08;;;;;;;10.07;3.90;;;;;;;12.81;88.83;101585.13;4958427;29;20082;-88
2021/10/15 03:51:34;;;;;;;13.88;3.80;;;;;;;12.82;88.63;101574.56;4957817;29;20035;-88
2021/10/15 03:53:59;;;;;;;8.45;3.28;;;;;;;12.84;88.26;101585.00;4958416;29;20062;-88
2021/10/15 03:56:25;;;;;;;10.27;3.38;;;;;;;12.85;87.74;101587.56;4945318;28;20045;-88
2021/10/15 03:58:50;;;;;;;8.25;3.03;;;;;;;12.88;87.39;101591.88;4961517;28;20338;-88
2021/10/15 04:01:15;;;;;;;9.35;3.20;;;;;;;12.91;87.57;101589.09;4961339;28;20054;-88
2021/10/15 04:03:41;;;;;;;7.55;2.70;;;;;;;12.92;87.55;101584.72;4944641;28;20159;-88
2021/10/15 04:06:06;;;;;;;12.40;3.20;;;;;;;12.92;86.92;101593.47;4961350;28;20226;-88
2021/10/15 04:08:32;;;;;;;9.57;3.22;;;;;;;12.94;86.80;101586.38;4976864;28;20039;-88
2021/10/15 04:10:57;;;;;;;7.22;3.08;;;;;;;12.95;86.93;101580.22;4977200;28;20038;-88
2021/10/15 04:13:23;;;;;;;8.68;3.33;;;;;;;12.95;87.36;101581.94;4960342;28;20045;-90
2021/10/15 04:15:48;;;;;;;7.70;2.75;;;;;;;12.94;86.96;101581.09;4977175;28;20288;-88
2021/10/15 04:18:14;;;;;;;14.02;3.53;;;;;;;12.96;86.77;101578.41;4960608;28;20038;-90
2021/10/15 04:20:39;;;;;;;8.82;2.63;;;;;;;12.96;86.78;101579.28;4976390;28;20118;-88
2021/10/15 04:23:05;;;;;;;16.48;3.50;;;;;;;12.97;86.88;101582.75;4960882;28;20038;-90
2021/10/15 04:25:30;;;;;;;14.07;3.38;;;;;;;12.98;86.49;101581.84;4976314;28;20039;-88
2021/10/15 04:27:56;;;;;;;10.75;2.70;;;;;;;12.99;86.21;101575.69;4960803;28;20041;-90
2021/10/15 04:30:21;;;;;;;11.90;3.38;;;;;;;13.00;86.38;101575.59;4960213;28;20041;-89
2021/10/15 04:32:47;;;;;;;9.63;3.08;;;;;;;13.01;86.61;101573.84;4976648;28;20045;-89
2021/10/15 04:35:12;;;;;;;9.20;3.63;;;;;;;13.01;86.47;101573.84;4960575;28;20047;-89
2021/10/15 04:37:38;;;;;;;9.95;3.10;;;;;;;13.01;86.12;101573.84;4960207;28;20041;-90
2021/10/15 04:40:03;;;;;;;7.43;2.88;;;;;;;13.01;86.06;101568.59;4960343;28;20042;-89
2021/10/15 04:42:29;;;;;;;13.95;3.33;;;;;;;13.01;86.18;101574.69;4977597;28;20030;-89
2021/10/15 04:44:54;;;;;;;11.43;2.97;;;;;;;13.03;86.07;101579.91;4944477;28;20034;-90
2021/10/15 04:47:20;;;;;;;12.63;3.53;;;;;;;13.01;86.57;101574.69;4965689;28;20045;-90
2021/10/15 04:49:45;;;;;;;8.25;2.85;;;;;;;13.02;86.28;101575.53;4940964;29;20416;-90
2021/10/15 04:52:11;;;;;;;7.53;2.90;;;;;;;13.01;86.52;101573.84;4940824;29;20031;-90
2021/10/15 04:54:36;;;;;;;9.95;3.40;;;;;;;13.00;85.49;101577.38;4940675;29;20226;-90
2021/10/15 04:57:02;;;;;;;18.65;3.92;;;;;;;13.02;85.36;101572.91;4965309;28;20050;-89
2021/10/15 04:59:27;;;;;;;9.02;3.00;;;;;;;13.03;85.44;101569.38;4959443;28;20223;-89
2021/10/15 05:01:52;;;;;;;10.35;3.05;;;;;;;13.04;85.42;101581.59;4961484;28;20049;-89
2021/10/15 05:04:18;;;;;;;12.75;3.47;;;;;;;13.04;85.60;101573.72;4956416;29;20059;-89
2021/10/15 05:06:43;;;;;;;12.43;3.83;;;;;;;13.04;85.22;101571.06;4940761;29;20027;-90
2021/10/15 05:11:34;;;;;;;11.20;3.63;;;;;;;13.02;85.73;101563.28;4940535;29;20415;-90
2021/10/15 05:14:00;;;;;;;11.43;4.50;;;;;;;13.02;85.98;101565.91;4940439;29;20218;-90
2021/10/15 05:16:26;;;;;;;12.18;3.22;;;;;;;13.02;85.78;101567.66;4932545;29;20334;-89
2021/10/15 05:18:51;;;;;;;7.10;2.90;;;;;;;13.02;85.66;101559.75;4924849;29;20110;-90
2021/10/15 05:21:17;;;;;;;6.93;2.70;;;;;;;13.02;86.08;101565.03;4939819;29;20041;-89
2021/10/15 05:23:42;;;;;;;15.68;4.00;;;;;;;13.02;85.47;101565.91;4956282;28;20065;-89
2021/10/15 05:26:08;;;;;;;10.80;3.58;;;;;;;13.03;85.35;101572.84;4941184;29;20233;-90
2021/10/15 05:28:33;;;;;;;13.15;3.95;;;;;;;13.02;85.70;101567.66;4923676;29;20047;-90
2021/10/15 05:30:59;;;;;;;9.45;2.70;;;;;;;13.03;85.84;101567.59;4924515;29;20032;-90
2021/10/15 05:33:24;;;;;;;8.55;3.42;;;;;;;13.03;85.83;101561.50;4924206;29;20055;-90
2021/10/15 05:35:50;;;;;;;15.40;3.47;;;;;;;13.02;85.71;101565.03;4940363;29;20343;-90
2021/10/15 05:38:15;;;;;;;3.78;2.50;;;;;;;13.01;85.53;101563.31;4940355;29;20043;-90
2021/10/15 05:40:41;;;;;;;9.48;2.97;;;;;;;13.01;85.68;101565.97;4940165;29;20110;-90
2021/10/15 05:43:06;;;;;;;6.25;2.65;;;;;;;13.01;85.62;101587.00;4924682;29;20035;-89
2021/10/15 05:45:32;;;;;;;8.55;2.38;;;;;;;13.01;85.63;101581.75;4939859;29;20361;-90
2021/10/15 05:47:57;;;;;;;10.15;2.15;;;;;;;12.98;86.35;101602.88;4940505;29;20086;-90
2021/10/15 05:50:24;;;;;;;9.50;2.47;;;;;;;12.92;87.08;101593.47;4939580;29;20338;-90
2021/10/15 05:52:51;;;;;;;8.40;2.67;;;;;;;12.86;87.84;101589.28;4940725;29;20042;-90
2021/10/15 06:00:23;;;;;;;7.10;2.75;;;;;;;12.74;89.34;101597.63;4961109;28;20038;-90
2021/10/15 06:02:48;;;;;;;8.95;3.60;;;;;;;12.72;89.74;101591.59;4959652;28;20060;-90
2021/10/15 06:16:24;;;;;;;8.55;3.25;;;;;;;12.64;90.98;101618.16;4925830;29;20243;-90
2021/10/15 06:18:57;;;;;;;10.23;3.50;;;;;;;12.60;91.24;101616.53;4953070;28;20070;-89
2021/10/15 06:21:23;;;;;;;8.80;3.35;;;;;;;12.59;91.74;101614.84;4924881;29;20035;-89
2021/10/15 06:23:48;;;;;;;11.40;3.15;;;;;;;12.49;91.89;101635.31;4939623;29;20045;-88
2021/10/15 06:26:13;;;;;;;4.68;2.03;;;;;;;12.40;91.64;101645.31;4939877;29;20334;-89
2021/10/15 06:28:39;;;;;;;2.03;0.95;;;;;;;12.25;91.06;101651.97;4955690;29;20330;-89
2021/10/15 06:31:04;;;;;;;5.57;0.98;;;;;;;12.13;90.68;101655.84;4939356;29;20079;-89
2021/10/15 06:33:30;;;;;;;3.17;0.88;;;;;;;11.98;90.55;101657.22;4954672;28;20045;-89
2021/10/15 06:35:55;;;;;;;2.50;0.50;;;;;;;11.84;90.33;101664.66;4956614;29;20527;-89
2021/10/15 06:38:21;;;;;;;3.42;0.70;;;;;;;11.75;90.77;101676.34;4955898;29;20049;-89
2021/10/15 06:40:46;;;;;;;1.92;0.57;;;;;;;11.71;91.10;101680.84;4950277;29;20041;-89
2021/10/15 06:43:12;;;;;;;1.98;0.55;;;;;;;11.68;91.93;101680.06;4939115;29;20212;-89
2021/10/15 06:45:37;;;;;;;3.50;0.60;;;;;;;11.60;91.82;101695.19;4956139;28;20049;-89
2021/10/15 06:48:03;;;;;;;2.15;0.43;;;;;;;11.52;92.02;101690.19;4956639;29;20031;-89
2021/10/15 06:50:28;;;;;;;4.72;0.52;;;;;;;11.50;92.15;101707.75;4938564;29;20042;-90
2021/10/15 06:52:54;;;;;;;8.88;1.05;;;;;;;11.44;92.25;101706.16;4958939;28;20098;-89
2021/10/15 06:55:21;;;;;;;6.28;0.77;;;;;;;11.40;92.51;101722.88;4939540;28;20031;-88
2021/10/15 06:57:47;;;;;;;6.57;0.90;;;;;;;11.34;92.19;101737.03;4961060;28;20050;-89
2021/10/15 07:00:47;;;;;;;6.97;1.10;;;;;;;11.26;91.94;101727.66;4931455;28;20078;-89
2021/10/15 07:03:57;;;;;;;6.38;1.23;;;;;;;11.18;91.83;101735.78;4910904;28;20199;-89
2021/10/15 07:06:23;;;;;;;3.00;0.82;;;;;;;11.19;91.75;101737.50;4955747;29;20049;-89
2021/10/15 07:08:48;;;;;;;6.80;1.40;;;;;;;11.16;91.98;101729.72;4938616;29;20560;-89
2021/10/15 07:11:17;;;;;;;10.05;1.27;;;;;;;11.14;91.82;101745.47;4958158;29;20039;-89
2021/10/15 07:14:45;;;;;;;4.68;0.77;;;;;;;11.16;92.08;101749.84;4939949;29;20047;-88
2021/10/15 07:17:28;;;;;;;8.88;1.35;;;;;;;11.13;92.10;101756.00;4938133;28;20035;-88
2021/10/15 07:19:54;;;;;;;11.35;1.50;;;;;;;11.16;92.22;101750.69;4952694;29;20054;-89
2021/10/15 07:22:19;;;;;;;9.23;1.30;;;;;;;11.14;91.96;101769.06;4954839;28;20039;-89
2021/10/15 07:24:44;;;;;;;6.20;1.15;;;;;;;11.18;92.23;101775.09;4947527;29;20027;-89
2021/10/15 07:27:10;;;;;;;3.78;1.05;;;;;;;11.17;92.18;101767.28;4929718;29;20045;-89
2021/10/15 07:29:35;;;;;;;12.85;1.55;;;;;;;11.14;91.79;101770.84;4941813;29;20062;-88
2021/10/15 07:32:01;;;;;;;12.98;1.88;;;;;;;11.19;92.09;101775.94;4939527;29;20044;-89
2021/10/15 07:34:26;;;;;;;4.85;1.15;;;;;;;11.17;91.78;101778.63;4953786;29;20044;-89
2021/10/15 07:36:52;;;;;;;7.25;1.17;;;;;;;11.19;92.00;101789.94;4937871;29;20343;-89
2021/10/15 07:39:17;;;;;;;5.82;1.40;;;;;;;11.21;92.17;101790.75;4939249;28;20289;-89
2021/10/15 07:41:45;;;;;;;17.50;1.55;;;;;;;11.19;92.21;101787.31;4950923;28;20048;-89
2021/10/15 07:44:13;;;;;;;10.05;1.23;;;;;;;11.18;91.92;101793.44;4936013;28;20291;-88
2021/10/15 07:46:39;;;;;;;8.00;1.13;;;;;;;11.20;91.60;101794.25;4931612;29;20075;-89
2021/10/15 07:49:06;;;;;;;9.63;1.27;;;;;;;11.18;90.82;101796.06;4957409;29;20035;-89
2021/10/15 07:51:31;;;;;;;4.75;1.27;;;;;;;11.21;91.11;101811.72;4938138;29;20049;-88
2021/10/15 07:53:57;;;;;;;11.10;1.48;;;;;;;11.22;91.52;101808.19;4946131;28;20110;-89
2021/10/15 07:56:22;;;;;;;7.63;1.77;;;;;;;11.23;91.73;101814.31;4922541;29;20125;-89
2021/10/15 07:58:48;;;;;;;13.18;1.92;;;;;;;11.21;91.58;101826.59;4954882;29;20066;-89
2021/10/15 08:01:13;;;;;;;12.23;1.70;;;;;;;11.18;91.07;101821.44;4938448;29;20049;-89
2021/10/15 08:03:39;;;;;;;10.63;1.40;;;;;;;11.11;89.87;101829.47;4951202;29;20418;-89
2021/10/15 08:06:04;;;;;;;9.15;1.48;;;;;;;11.13;90.58;101829.41;4940445;29;20058;-89
2021/10/15 08:08:30;;;;;;;9.75;1.60;;;;;;;11.16;90.43;101834.59;4947582;29;20051;-89
2021/10/15 08:10:55;;;;;;;5.97;1.35;;;;;;;11.18;90.70;101838.03;4938483;29;20043;-89
2021/10/15 08:13:20;;;;;;;9.13;1.75;;;;;;;11.20;90.94;101833.59;4938101;29;20321;-88
2021/10/15 08:15:46;;;;;;;14.68;1.83;;;;;;;11.24;91.62;101835.25;4939868;29;20349;-89
2021/10/15 08:18:11;;;;;;;12.55;1.42;;;;;;;11.27;91.87;101831.66;4938437;29;20079;-89
2021/10/15 08:20:37;;;;;;;9.07;2.10;;;;;;;11.24;91.07;101840.50;4953758;28;20102;-89
2021/10/15 08:23:02;;;;;;;7.55;1.48;;;;;;;11.27;91.08;101842.16;4922713;29;20083;-89
2021/10/15 08:25:28;;;;;;;10.20;2.15;;;;;;;11.30;91.45;101848.19;4956805;29;20234;-89
2021/10/15 08:27:54;;;;;;;10.18;1.65;;;;;;;11.36;91.87;101848.91;4937667;28;20040;-89
2021/10/15 08:30:19;;;;;;;8.45;2.08;;;;;;;11.38;91.45;101854.97;4942646;29;20031;-90
2021/10/15 08:32:45;;;;;;;8.48;1.75;;;;;;;11.44;91.67;101862.66;4922927;29;20043;-89
2021/10/15 08:35:10;;;;;;;14.98;1.95;;;;;;;11.48;91.78;101867.78;4937605;29;20071;-89
2021/10/15 08:37:39;;;;;;;9.48;1.20;;;;;;;11.50;91.58;101871.22;4930850;29;20032;-89
2021/10/15 08:40:05;;;;;;;9.73;1.30;;;;;;;11.52;91.37;101866.78;4950959;28;20118;-89
2021/10/15 08:42:31;;;;;;;10.40;1.35;;;;;;;11.53;90.70;101875.53;4943687;29;20050;-89
2021/10/15 08:44:56;;;;;;;9.02;1.50;;;;;;;11.53;90.35;101878.13;4946221;29;20334;-89
2021/10/15 08:47:22;;;;;;;10.48;1.92;;;;;;;11.58;90.85;101889.38;4921632;29;20043;-89
2021/10/15 08:49:47;;;;;;;7.95;1.38;;;;;;;11.59;90.40;101885.84;4949164;29;20070;-89
2021/10/15 08:52:13;;;;;;;12.88;1.23;;;;;;;11.58;89.34;101888.53;4921814;29;20274;-89
2021/10/15 08:54:43;;;;;;;9.23;1.10;;;;;;;11.57;88.15;101892.03;4956031;28;20212;-89
2021/10/15 08:57:08;;;;;;;13.10;1.95;;;;;;;11.59;87.65;101891.09;4934913;28;20035;-89
2021/10/15 08:59:41;;;;;;;7.63;1.77;;;;;;;11.60;86.41;101905.94;4925562;29;20032;-89
2021/10/15 09:02:11;;;;;;;16.27;1.67;;;;;;;11.64;85.60;101899.72;4930000;29;20337;-89
2021/10/15 09:04:48;;;;;;;8.30;1.38;;;;;;;11.65;83.17;101911.91;4925322;29;20235;-89
2021/10/15 09:07:16;;;;;;;10.88;1.63;;;;;;;11.66;82.13;101913.66;4935576;28;20035;-89
2021/10/15 09:09:42;;;;;;;10.93;2.08;;;;;;;11.66;81.85;101910.13;4939663;29;20070;-89
2021/10/15 09:12:18;;;;;;;8.65;1.63;;;;;;;11.63;81.63;101918.97;4921646;29;20047;-89
2021/10/15 09:14:44;;;;;;;9.35;1.50;;;;;;;11.58;78.67;101923.47;4938866;29;20047;-89
2021/10/15 09:17:18;;;;;;;12.45;1.98;;;;;;;11.56;77.82;101932.31;4934245;29;20034;-89
2021/10/15 09:19:47;;;;;;;8.90;1.90;;;;;;;11.51;80.58;101930.69;4937417;29;20044;-89
2021/10/15 09:22:30;;;;;;;9.00;1.58;;;;;;;11.46;80.11;101929.94;4934022;29;20247;-89
2021/10/15 09:25:12;;;;;;;10.18;2.05;;;;;;;11.43;77.93;101932.63;4938647;29;20035;-89
2021/10/15 09:27:43;;;;;;;11.98;1.35;;;;;;;11.45;80.87;101930.81;4955464;28;20038;-89
2021/10/15 09:30:13;;;;;;;15.77;2.55;;;;;;;11.45;79.30;101938.69;4953018;28;20045;-89
2021/10/15 09:32:40;;;;;;;7.40;1.30;;;;;;;11.46;76.35;101940.44;4934241;28;20041;-89
2021/10/15 09:35:07;;;;;;;5.93;1.08;;;;;;;11.48;72.96;101943.88;4928321;29;20046;-89
2021/10/15 09:37:34;;;;;;;5.18;1.05;;;;;;;11.56;77.02;101943.66;4940929;29;20031;-89
2021/10/15 09:40:03;;;;;;;8.55;1.35;;;;;;;11.57;72.67;101948.00;4944619;28;20078;-89
2021/10/15 09:42:29;;;;;;;5.65;1.45;;;;;;;11.66;71.57;101941.63;4952168;28;20036;-89
2021/10/15 09:44:55;;;;;;;8.70;1.08;;;;;;;11.72;73.61;101950.19;4913260;29;20063;-89
2021/10/15 09:47:27;;;;;;;8.80;1.40;;;;;;;11.79;72.06;101947.41;4939884;29;20062;-89
2021/10/15 09:49:54;;;;;;;7.07;0.88;;;;;;;11.86;74.11;101947.19;4923096;29;20046;-89
2021/10/15 09:52:32;;;;;;;6.20;1.13;;;;;;;11.90;70.61;101953.25;4952323;28;20039;-88
2021/10/15 09:54:59;;;;;;;6.40;1.00;;;;;;;12.02;70.94;101952.03;4960259;28;20035;-89
2021/10/15 09:57:38;;;;;;;5.50;1.48;;;;;;;12.06;75.00;101956.28;4936727;29;20031;-89
2021/10/15 10:00:08;;;;;;;4.05;0.65;;;;;;;12.06;72.12;101959.78;4937385;29;20350;-90
2021/10/15 10:02:34;;;;;;;12.98;1.33;;;;;;;12.04;73.27;101960.72;4936405;29;20034;-89
2021/10/15 10:05:00;;;;;;;14.18;1.55;;;;;;;12.06;73.36;101958.91;4956152;29;20358;-89
2021/10/15 10:07:25;;;;;;;9.27;1.50;;;;;;;12.17;71.30;101966.47;4939412;29;20082;-89
2021/10/15 10:09:51;;;;;;;9.43;1.98;;;;;;;12.26;69.93;101967.09;4942695;29;20054;-89
2021/10/15 10:12:16;;;;;;;9.23;1.02;;;;;;;12.31;71.02;101972.19;4924845;29;20040;-89
2021/10/15 10:14:42;;;;;;;6.47;1.20;;;;;;;12.29;69.34;101966.97;4940174;29;20235;-89
2021/10/15 10:17:12;;;;;;;12.02;1.35;;;;;;;12.30;70.25;101975.72;4953024;29;20110;-89
2021/10/15 10:19:38;;;;;;;10.88;1.52;;;;;;;12.34;68.60;101971.25;4939551;29;20294;-89
2021/10/15 10:22:04;;;;;;;5.18;1.33;;;;;;;12.40;69.02;101981.56;4933554;28;20019;-89
2021/10/15 10:24:31;;;;;;;11.13;1.20;;;;;;;12.41;68.41;101989.41;4939981;28;20039;-89
2021/10/15 10:26:57;;;;;;;8.00;1.48;;;;;;;12.45;68.88;101992.78;4935764;29;20138;-89
2021/10/15 10:29:23;;;;;;;10.73;1.15;;;;;;;12.44;66.96;101989.31;4928121;29;20366;-89
2021/10/15 10:31:48;;;;;;;7.53;1.27;;;;;;;12.46;71.02;101990.13;4932377;29;20339;-89
2021/10/15 10:34:22;;;;;;;9.45;2.05;;;;;;;12.49;70.85;101986.53;4925237;29;20031;-89
2021/10/15 10:37:04;;;;;;;5.03;1.13;;;;;;;12.51;70.15;101981.22;4936831;29;20569;-89
2021/10/15 10:39:30;;;;;;;15.32;2.80;;;;;;;12.54;73.03;101982.00;4939870;28;20078;-89
2021/10/15 10:42:12;;;;;;;12.90;1.25;;;;;;;12.57;69.28;101992.44;4967555;28;20044;-89
2021/10/15 10:44:38;;;;;;;9.68;1.25;;;;;;;12.62;67.98;101987.88;4924084;29;20067;-89
2021/10/15 10:47:20;;;;;;;5.20;1.08;;;;;;;12.65;68.78;101987.78;4940373;29;20242;-89
2021/10/15 10:50:11;;;;;;;7.88;1.17;;;;;;;12.69;68.84;101996.44;4939190;29;20050;-89
2021/10/15 10:52:45;;;;;;;12.02;2.03;;;;;;;12.75;70.16;102001.50;4955265;28;20078;-89
2021/10/15 10:55:33;;;;;;;8.63;1.17;;;;;;;12.79;68.06;102002.28;4942488;28;20362;-89
2021/10/15 10:57:59;;;;;;;15.20;1.83;;;;;;;12.80;68.18;102023.22;4955808;29;20444;-89
2021/10/15 11:00:24;;;;;;;9.15;1.42;;;;;;;12.74;69.02;102014.69;4942062;29;20667;-89
2021/10/15 11:02:57;;;;;;;11.18;1.23;;;;;;;12.72;70.24;102014.75;4950309;29;20031;-89
2021/10/15 11:05:32;;;;;;;12.73;1.50;;;;;;;12.71;69.23;102020.91;4943687;29;20078;-89
2021/10/15 11:08:22;;;;;;;7.70;1.88;;;;;;;12.73;67.60;102028.75;4941378;28;20035;-89
2021/10/15 11:10:48;;;;;;;5.95;1.20;;;;;;;12.73;67.74;102024.34;4945591;29;20035;-89
2021/10/15 11:13:31;;;;;;;3.38;1.30;;;;;;;12.77;68.96;102025.09;4940572;29;20071;-89
2021/10/15 11:15:57;;;;;;;8.75;1.33;;;;;;;12.79;67.10;102028.56;4941827;28;20031;-89
2021/10/15 11:18:22;;;;;;;8.25;0.90;;;;;;;12.77;66.77;102036.50;4949659;29;20238;-89
2021/10/15 11:20:47;;;;;;;6.18;1.20;;;;;;;12.81;67.58;102032.00;4936792;29;20035;-89
2021/10/15 11:23:13;;;;;;;10.95;1.45;;;;;;;12.86;64.70;102036.22;4950308;29;20027;-90
2021/10/15 11:25:40;;;;;;;9.80;2.30;;;;;;;12.91;64.67;102043.09;4938052;29;20054;-89
2021/10/15 11:28:10;;;;;;;5.38;1.17;;;;;;;12.83;64.65;102043.34;4949685;28;20031;-89
2021/10/15 11:30:37;;;;;;;5.88;1.23;;;;;;;12.75;66.16;102048.84;4953544;29;20027;-89
2021/10/15 11:33:03;;;;;;;7.75;1.42;;;;;;;12.68;66.23;102052.56;4950251;28;20051;-89
2021/10/15 11:35:32;;;;;;;9.30;1.27;;;;;;;12.68;64.80;102053.41;4936618;29;20413;-89
2021/10/15 11:38:25;;;;;;;5.50;1.10;;;;;;;12.73;64.90;102049.75;4925433;29;20036;-89
2021/10/15 11:41:10;;;;;;;8.13;1.40;;;;;;;12.76;64.15;102061.06;4954473;28;20038;-89